This is the latest recevied weather packets stored in our database for station/object KM4NDN. If no packets are shown the sender has not sent any weather packets the latest 10 day(s).
| Time | Temp. | Humidity | Pressure | Rain* | Wind** | Luminosity | Snow |
|---|---|---|---|---|---|---|---|
| 1777819686 | 12.22° C | 47% | 1014 hPa | 0 mm | - | 625 W/m² | - |
| 1777819386 | 11.67° C | 49% | 1013.9 hPa | 0 mm | - | 615 W/m² | - |
| 1777819082 | 11.11° C | 49% | 1014.1 hPa | 0 mm | - | 602 W/m² | - |
| 1777818778 | 11.11° C | 50% | 1014 hPa | 0 mm | - | 590 W/m² | - |
| 1777818474 | 11.11° C | 51% | 1014.2 hPa | 0 mm | - | 576 W/m² | - |
| 1777818172 | 11.11° C | 50% | 1014.1 hPa | 0 mm | - | 563 W/m² | - |
| 1777817868 | 10.56° C | 51% | 1014.3 hPa | 0 mm | - | 551 W/m² | - |
| 1777817566 | 10.56° C | 51% | 1014.2 hPa | 0 mm | - | 537 W/m² | - |
| 1777817262 | 10.56° C | 51% | 1014.4 hPa | 0 mm | - | 521 W/m² | - |
| 1777816960 | 10.56° C | 50% | 1014.2 hPa | 0 mm | - | 508 W/m² | - |
| 1777816656 | 10.56° C | 51% | 1014.3 hPa | 0 mm | - | 494 W/m² | - |
| 1777816353 | 10.56° C | 50% | 1014.2 hPa | 0 mm | - | 481 W/m² | - |
| 1777816051 | 10° C | 52% | 1014.3 hPa | 0 mm | - | 467 W/m² | - |
| 1777815748 | 10° C | 51% | 1014.5 hPa | 0 mm | - | 452 W/m² | - |
| 1777815445 | 9.44° C | 51% | 1014.5 hPa | 0 mm | - | 441 W/m² | - |
| 1777815143 | 9.44° C | 54% | 1014.2 hPa | 0 mm | - | 383 W/m² | - |
| 1777814839 | 9.44° C | 54% | 1014.4 hPa | 0 mm | - | 413 W/m² | - |
| 1777814535 | 8.89° C | 53% | 1014.3 hPa | 0 mm | - | 396 W/m² | - |
| 1777814233 | 8.89° C | 54% | 1014.4 hPa | 0 mm | - | 353 W/m² | - |
| 1777813929 | 8.89° C | 54% | 1014.2 hPa | 0 mm | - | 298 W/m² | - |
| 1777813627 | 8.33° C | 53% | 1014.3 hPa | 0 mm | - | 304 W/m² | - |
| 1777813324 | 8.33° C | 55% | 1014.5 hPa | 0 mm | - | 335 W/m² | - |
| 1777813021 | 8.33° C | 54% | 1014.5 hPa | 0 mm | - | 310 W/m² | - |
| 1777812719 | 7.78° C | 55% | 1014.5 hPa | 0 mm | - | 292 W/m² | - |
| 1777812415 | 7.78° C | 55% | 1014.4 hPa | 0 mm | - | 277 W/m² | - |
* Rain latest hour (hover to see other rain measurements)
** Current wind speed in m/s (hover to see current wind gust speed)